Time;durP1;ratioP1;P1;durP2;ratioP2;P2;SDS_P1;SDS_P2;PMS_P1;PMS_P2;Temp;Humidity;BMP_temperature;BMP_pressure;BME280_temperature;BME280_humidity;BME280_pressure;Samples;Min_cycle;Max_cycle;Signal;HPM_P1;HPM_P2
2021/05/18 00:01:00;;;;;;;18.70;6.55;;;;;;;21.94;28.09;99021.44;5091641;28;20032;-47
2021/05/18 00:03:26;;;;;;;20.05;7.05;;;;;;;21.92;28.15;99023.53;5091884;28;20460;-47
2021/05/18 00:05:57;;;;;;;22.83;7.10;;;;;;;21.98;28.30;99035.44;5091588;28;20035;-50
2021/05/18 00:08:24;;;;;;;20.48;6.72;;;;;;;21.88;28.40;99040.53;5091931;28;20073;-53
2021/05/18 00:13:41;;;;;;;16.67;6.43;;;;;;;21.71;28.72;99021.16;5091850;28;20047;-45
2021/05/18 00:16:08;;;;;;;18.08;6.40;;;;;;;21.71;28.87;99023.88;5091367;28;20051;-51
2021/05/18 00:18:35;;;;;;;23.90;6.68;;;;;;;21.66;29.04;99027.22;5091686;28;20039;-50
2021/05/18 00:21:01;;;;;;;18.60;6.38;;;;;;;21.29;28.81;98958.84;5091518;28;20024;-46
2021/05/18 00:23:26;;;;;;;18.92;7.05;;;;;;;21.50;28.94;99014.91;5091502;28;20072;-45
2021/05/18 00:26:00;;;;;;;17.85;6.47;;;;;;;21.50;29.26;99020.34;5091818;28;20071;-45
2021/05/18 00:28:26;;;;;;;19.80;6.72;;;;;;;21.49;29.36;99029.56;5089796;28;20063;-47
2021/05/18 00:30:51;;;;;;;17.23;6.60;;;;;;;21.43;29.12;99023.09;5091219;28;20120;-51
2021/05/18 00:33:29;;;;;;;21.48;6.95;;;;;;;21.40;29.54;99003.63;5091583;28;20036;-49
2021/05/18 00:35:55;;;;;;;18.25;6.38;;;;;;;21.39;29.51;99002.81;5091179;28;20131;-49
2021/05/18 00:38:21;;;;;;;17.15;7.00;;;;;;;21.24;29.69;99000.34;5091183;28;20037;-48
2021/05/18 00:40:49;;;;;;;19.58;7.00;;;;;;;21.27;29.68;99018.13;5091447;28;20186;-46
2021/05/18 00:43:14;;;;;;;19.08;6.97;;;;;;;21.28;29.84;99017.91;5091578;28;20109;-47
2021/05/18 00:45:45;;;;;;;24.58;7.47;;;;;;;21.17;30.04;99021.28;5091107;28;20497;-50
2021/05/18 00:48:11;;;;;;;19.83;6.75;;;;;;;21.10;30.08;99020.47;5090803;28;20119;-47
2021/05/18 00:50:40;;;;;;;19.45;6.88;;;;;;;21.11;30.44;99019.41;5091284;28;20128;-47
2021/05/18 00:53:08;;;;;;;14.73;6.20;;;;;;;21.03;30.11;99021.31;5090924;28;20031;-48
2021/05/18 00:55:48;;;;;;;23.05;7.07;;;;;;;20.87;30.54;99000.00;5091086;28;20258;-48
2021/05/18 00:58:26;;;;;;;19.63;6.78;;;;;;;20.89;30.66;99003.34;5091506;28;20130;-46
2021/05/18 01:01:16;;;;;;;15.50;6.30;;;;;;;21.12;30.51;99023.81;5090354;28;20100;-50
2021/05/18 01:03:43;;;;;;;14.57;6.75;;;;;;;20.89;30.88;99017.78;5090460;28;20032;-48
2021/05/18 01:08:46;;;;;;;17.15;6.20;;;;;;;20.72;31.26;99022.78;5091483;28;20089;-50
2021/05/18 01:11:13;;;;;;;21.85;6.57;;;;;;;20.58;31.48;99013.78;5090739;28;20050;-47
2021/05/18 01:13:39;;;;;;;16.98;6.20;;;;;;;20.54;31.81;99017.97;5090220;28;20115;-49
2021/05/18 01:16:08;;;;;;;22.88;7.22;;;;;;;20.50;31.83;99011.28;5089936;28;20505;-47
2021/05/18 01:18:45;;;;;;;16.65;6.47;;;;;;;20.50;31.96;99024.88;5089521;28;20134;-44
2021/05/18 01:21:12;;;;;;;23.15;6.95;;;;;;;20.17;32.02;98982.22;5090787;28;20123;-46
2021/05/18 01:23:39;;;;;;;15.07;6.63;;;;;;;20.43;31.94;99030.31;5090390;28;20050;-46
2021/05/18 01:26:05;;;;;;;15.68;6.78;;;;;;;20.45;32.00;99025.50;5090639;28;20047;-47
2021/05/18 01:28:30;;;;;;;23.25;6.93;;;;;;;20.34;32.28;99012.53;5090611;28;20032;-47
2021/05/18 01:30:58;;;;;;;20.42;6.63;;;;;;;20.32;32.29;99009.19;5090563;28;20062;-45
2021/05/18 01:33:24;;;;;;;21.90;7.13;;;;;;;20.37;31.92;99012.94;5090350;28;20031;-46
2021/05/18 01:35:50;;;;;;;14.00;6.90;;;;;;;19.93;32.16;98935.56;5090281;28;20032;-48
2021/05/18 01:38:20;;;;;;;16.38;6.40;;;;;;;20.44;32.08;99029.25;5090269;28;20035;-48
2021/05/18 01:43:37;;;;;;;15.18;6.70;;;;;;;20.35;32.39;99036.78;5090286;28;20044;-47
2021/05/18 01:46:02;;;;;;;18.50;6.68;;;;;;;20.27;32.39;99001.66;5090088;28;20080;-48
2021/05/18 01:48:33;;;;;;;20.00;6.55;;;;;;;19.98;32.35;98952.09;5090305;28;20032;-47
2021/05/18 01:50:59;;;;;;;23.52;6.90;;;;;;;20.35;32.41;99014.22;5089987;28;20032;-51
2021/05/18 01:53:24;;;;;;;18.52;6.75;;;;;;;20.53;32.35;99029.06;5089901;28;20051;-47
2021/05/18 01:58:34;;;;;;;20.42;6.80;;;;;;;20.16;32.08;98973.22;5089939;28;20123;-49
2021/05/18 02:00:59;;;;;;;24.52;7.18;;;;;;;20.50;32.32;99033.88;5090236;28;20111;-51
2021/05/18 02:03:25;;;;;;;20.55;6.60;;;;;;;20.22;32.29;98999.53;5090143;28;20082;-47
2021/05/18 02:05:51;;;;;;;15.68;6.57;;;;;;;20.53;32.40;99046.22;5090048;28;20063;-46
2021/05/18 02:08:16;;;;;;;20.65;5.90;;;;;;;20.40;32.38;99033.44;5089011;28;20039;-47
2021/05/18 02:10:42;;;;;;;17.50;5.60;;;;;;;20.43;31.99;99033.03;5088456;28;20062;-49
2021/05/18 02:13:09;;;;;;;21.27;6.70;;;;;;;20.59;32.12;99037.22;5091183;28;20031;-52
2021/05/18 02:20:55;;;;;;;14.57;6.13;;;;;;;20.87;31.93;99047.09;5094036;28;20035;-49
2021/05/18 02:26:13;;;;;;;13.15;6.20;;;;;;;21.23;31.23;99047.66;5084648;28;20085;-48
2021/05/18 02:28:40;;;;;;;16.33;6.43;;;;;;;21.29;31.26;99044.09;5093629;28;20119;-48
2021/05/18 02:31:05;;;;;;;16.45;6.65;;;;;;;21.40;30.76;99047.19;5093892;28;20127;-47
2021/05/18 02:33:31;;;;;;;14.13;6.18;;;;;;;21.44;30.94;99037.53;5093860;28;20124;-51
2021/05/18 02:35:56;;;;;;;23.60;6.63;;;;;;;21.46;31.06;99029.97;5094553;28;20039;-46
2021/05/18 02:38:21;;;;;;;18.00;6.32;;;;;;;21.51;30.79;99028.28;5093932;28;20050;-52
2021/05/18 02:40:47;;;;;;;18.77;5.93;;;;;;;21.54;30.92;99042.53;5093422;28;20098;-45
2021/05/18 02:43:18;;;;;;;17.05;6.25;;;;;;;21.64;30.58;99048.38;5093200;28;20490;-51
2021/05/18 02:51:09;;;;;;;16.88;5.78;;;;;;;21.36;30.23;98971.38;5093393;28;20043;-51
2021/05/18 02:53:34;;;;;;;18.00;6.13;;;;;;;21.82;30.46;99042.25;5093429;28;20382;-52
2021/05/18 02:58:37;;;;;;;19.60;6.43;;;;;;;21.82;30.48;99046.84;5093110;28;20398;-48
2021/05/18 03:01:02;;;;;;;17.13;5.72;;;;;;;21.77;30.43;99036.63;5093552;28;20036;-49
2021/05/18 03:03:28;;;;;;;13.30;5.20;;;;;;;21.92;30.27;99042.59;5093211;28;20074;-50
2021/05/18 03:05:54;;;;;;;16.90;5.90;;;;;;;22.09;29.83;99047.53;5093229;28;20040;-48
2021/05/18 03:08:20;;;;;;;17.48;6.30;;;;;;;22.11;29.93;99048.16;5093273;28;20082;-47
2021/05/18 03:10:46;;;;;;;25.42;7.00;;;;;;;22.12;30.14;99055.28;5092995;28;20039;-46
2021/05/18 03:13:13;;;;;;;19.65;6.18;;;;;;;22.30;29.71;99051.00;5093157;28;20031;-48
2021/05/18 03:15:39;;;;;;;18.60;6.15;;;;;;;22.43;29.60;99056.38;5093189;28;20046;-49
2021/05/18 03:18:05;;;;;;;20.40;5.80;;;;;;;22.54;29.53;99051.28;5092743;28;20072;-46
2021/05/18 03:20:31;;;;;;;14.77;5.63;;;;;;;22.72;29.39;99036.84;5092488;28;20041;-51
2021/05/18 03:22:57;;;;;;;14.98;5.30;;;;;;;23.26;28.29;99037.19;5093346;28;20039;-61
2021/05/18 03:25:23;;;;;;;19.60;6.18;;;;;;;24.02;27.50;99055.22;5092929;28;20201;-51
2021/05/18 03:27:52;;;;;;;14.23;6.20;;;;;;;24.66;26.46;99027.34;5092534;28;20064;-54
2021/05/18 03:30:43;;;;;;;15.00;5.43;;;;;;;25.45;25.19;99039.84;5092791;28;20036;-47
2021/05/18 03:35:53;;;;;;;16.52;6.10;;;;;;;26.74;23.13;99015.91;5092796;28;20032;-49
2021/05/18 03:38:32;;;;;;;22.30;5.97;;;;;;;27.48;22.54;99036.75;5074175;28;20028;-51
2021/05/18 03:41:06;;;;;;;16.58;5.25;;;;;;;28.11;22.16;99054.84;5093049;28;20067;-51
2021/05/18 03:44:00;;;;;;;17.50;6.37;;;;;;;28.68;21.25;99041.63;5092816;28;20117;-49
2021/05/18 04:04:31;;;;;;;17.40;6.07;;;;;;;31.89;17.30;99053.28;5092400;28;20040;-56
2021/05/18 04:12:41;;;;;;;17.15;5.65;;;;;;;33.42;15.44;99044.31;5092097;28;20044;-49
2021/05/18 04:18:01;;;;;;;18.08;5.05;;;;;;;34.62;14.75;99059.09;5091786;28;20142;-51
2021/05/18 04:43:13;;;;;;;19.48;5.47;;;;;;;38.05;11.55;99024.06;5091909;28;20051;-50
2021/05/18 05:01:10;;;;;;;18.10;5.90;;;;;;;41.27;8.88;99052.09;5091335;28;20036;-51
2021/05/18 05:06:24;;;;;;;14.43;5.78;;;;;;;41.88;8.73;99045.66;5090867;28;20028;-58
2021/05/18 05:16:26;;;;;;;17.60;6.30;;;;;;;43.54;7.47;99034.50;5090874;28;20040;-55
2021/05/18 05:18:52;;;;;;;16.98;5.90;;;;;;;43.95;7.18;99050.34;5090570;28;20547;-53
2021/05/18 05:21:26;;;;;;;17.65;5.65;;;;;;;43.43;6.85;99025.78;5091091;28;20043;-51
2021/05/18 05:23:51;;;;;;;13.50;6.07;;;;;;;43.86;6.73;99047.72;5090770;28;20032;-49
2021/05/18 05:26:17;;;;;;;17.88;5.78;;;;;;;44.53;6.69;99040.28;5090666;28;20273;-51
2021/05/18 05:28:42;;;;;;;15.32;5.50;;;;;;;45.13;6.32;99027.69;5090332;28;20032;-48
2021/05/18 05:31:08;;;;;;;17.73;5.80;;;;;;;45.81;5.86;99039.25;5090744;28;20055;-52
2021/05/18 05:33:33;;;;;;;21.98;6.32;;;;;;;46.44;5.75;99047.34;5090197;28;20035;-49
2021/05/18 05:35:58;;;;;;;22.52;6.78;;;;;;;46.86;5.32;99039.69;5090085;28;20036;-55
2021/05/18 05:38:25;;;;;;;17.02;5.60;;;;;;;46.72;5.29;99034.72;5090345;28;20047;-51
2021/05/18 05:40:51;;;;;;;15.57;6.22;;;;;;;46.89;5.49;99040.94;5090508;28;20060;-53
2021/05/18 05:43:18;;;;;;;17.42;5.88;;;;;;;47.12;5.20;99021.72;5089787;28;20070;-52
2021/05/18 05:45:44;;;;;;;12.02;5.65;;;;;;;47.00;5.17;99030.56;5088665;28;20039;-50
2021/05/18 05:48:09;;;;;;;16.88;6.10;;;;;;;47.43;5.17;99038.59;5090085;28;20032;-50
2021/05/18 05:50:35;;;;;;;14.75;5.75;;;;;;;47.19;5.06;99017.34;5090424;28;20063;-51
2021/05/18 05:53:00;;;;;;;12.68;6.13;;;;;;;47.73;4.98;99037.59;5090522;28;20120;-53
2021/05/18 05:55:26;;;;;;;17.55;6.47;;;;;;;47.94;4.54;98999.19;5090077;28;20028;-52
2021/05/18 05:57:52;;;;;;;15.10;6.95;;;;;;;48.04;4.65;99026.00;5090313;28;20027;-50
2021/05/18 06:00:18;;;;;;;21.42;5.78;;;;;;;48.19;4.90;99033.38;5092349;28;20036;-50
2021/05/18 06:02:44;;;;;;;17.42;6.18;;;;;;;49.17;4.42;99039.28;5110603;28;20042;-50
2021/05/18 06:05:10;;;;;;;14.57;6.32;;;;;;;49.13;3.86;99013.69;5110792;28;20042;-51
2021/05/18 06:07:36;;;;;;;14.55;6.40;;;;;;;49.20;4.19;99031.97;5110738;28;20462;-51
2021/05/18 06:10:12;;;;;;;19.65;7.22;;;;;;;48.52;4.07;99033.50;5110777;28;20027;-53
2021/05/18 06:47:37;;;;;;;15.48;6.30;;;;;;;51.26;3.23;99033.09;5094215;28;20479;-52
2021/05/18 06:50:29;;;;;;;17.70;6.47;;;;;;;51.03;3.26;99022.31;5097252;28;20129;-49
2021/05/18 06:52:55;;;;;;;18.55;6.13;;;;;;;50.65;3.47;99025.84;5098193;28;20043;-54
2021/05/18 06:55:24;;;;;;;13.57;6.22;;;;;;;50.30;3.28;99021.97;5098517;28;20035;-53
2021/05/18 06:57:54;;;;;;;21.40;6.93;;;;;;;50.95;3.07;99027.25;5098448;28;20028;-51
2021/05/18 07:00:21;;;;;;;19.70;6.82;;;;;;;51.51;2.90;99030.00;5100455;28;20203;-49
2021/05/18 07:02:49;;;;;;;18.98;6.53;;;;;;;52.30;2.61;99027.47;5101225;28;20032;-50
2021/05/18 07:05:41;;;;;;;18.02;6.72;;;;;;;52.72;2.15;99015.88;5098004;28;20024;-50
2021/05/18 07:10:27;;;;;;;16.92;8.10;;;;;;;52.60;2.54;98994.41;5102609;28;20032;-53
2021/05/18 07:12:53;;;;;;;18.92;8.20;;;;;;;52.55;2.33;99009.16;5101370;28;20473;-48
2021/05/18 07:15:20;;;;;;;19.15;8.73;;;;;;;52.23;2.36;99016.16;5095165;28;20036;-49
2021/05/18 07:17:45;;;;;;;18.05;8.80;;;;;;;51.92;2.36;99016.13;5092493;28;20043;-50
2021/05/18 07:20:11;;;;;;;24.60;8.93;;;;;;;52.19;2.32;99026.81;5100736;28;20035;-53
2021/05/18 07:22:37;;;;;;;20.30;8.88;;;;;;;52.24;2.72;99024.31;5113564;28;20334;-51
2021/05/18 07:25:03;;;;;;;16.60;8.13;;;;;;;52.95;2.45;99037.94;5113036;28;20054;-52
2021/05/18 07:27:29;;;;;;;24.33;9.13;;;;;;;53.46;1.84;99019.94;5112434;28;20089;-50
2021/05/18 07:29:54;;;;;;;22.50;10.15;;;;;;;53.23;1.95;99017.91;5099711;28;20065;-54
2021/05/18 07:32:20;;;;;;;18.30;8.65;;;;;;;52.93;2.26;99033.91;5091159;28;20382;-47
2021/05/18 07:34:58;;;;;;;19.17;8.65;;;;;;;53.32;2.34;99015.28;5091894;28;20122;-53
2021/05/18 07:37:24;;;;;;;22.00;8.95;;;;;;;54.51;1.48;99023.50;5091409;28;20032;-50
2021/05/18 07:39:56;;;;;;;20.42;10.85;;;;;;;54.87;1.76;99024.69;5091522;28;20044;-53
2021/05/18 07:42:22;;;;;;;23.50;9.82;;;;;;;55.03;1.42;99009.56;5091259;28;20094;-47
2021/05/18 07:44:47;;;;;;;18.67;9.75;;;;;;;54.71;1.14;99018.97;5098543;28;20421;-48
2021/05/18 07:47:14;;;;;;;21.27;9.20;;;;;;;53.74;1.55;99000.59;5100890;28;20031;-51
2021/05/18 07:49:45;;;;;;;17.23;9.77;;;;;;;53.36;1.79;99000.94;5106565;28;20512;-49
2021/05/18 08:00:41;;;;;;;18.55;8.90;;;;;;;52.43;2.12;98973.44;5095007;28;20032;-52
2021/05/18 08:05:52;;;;;;;;;;;;;;;54.16;1.97;99002.19;5107953;28;20116;-52
2021/05/18 08:08:18;;;;;;;18.55;7.68;;;;;;;52.20;2.56;99022.72;5094036;28;19912;-52
2021/05/18 08:10:58;;;;;;;20.55;8.32;;;;;;;50.78;3.11;99017.59;5104237;28;20051;-52
2021/05/18 08:13:24;;;;;;;22.80;7.32;;;;;;;48.54;3.81;98975.09;5102850;28;20114;-51
2021/05/18 08:16:51;;;;;;;23.70;8.07;;;;;;;46.65;4.82;99018.47;5095699;28;20554;-51
2021/05/18 10:36:11;;;;;;;24.75;4.78;;;;;;;32.38;10.80;99000.09;5108135;28;20069;-51
2021/05/18 10:38:46;;;;;;;25.60;4.90;;;;;;;32.31;10.53;98976.31;5093258;28;20082;-52
2021/05/18 10:41:24;;;;;;;18.88;4.68;;;;;;;32.38;11.18;98969.63;5092802;28;20048;-60
2021/05/18 10:44:04;;;;;;;21.35;4.78;;;;;;;32.39;10.95;98982.38;5092954;28;20040;-51
2021/05/18 10:46:48;;;;;;;26.95;5.63;;;;;;;32.41;11.01;98946.91;5097834;28;20111;-51
2021/05/18 10:49:14;;;;;;;23.42;5.05;;;;;;;32.02;10.90;98912.59;5102260;28;20071;-52
2021/05/18 10:51:44;;;;;;;28.63;5.35;;;;;;;32.13;10.92;98977.84;5107333;28;20505;-49
2021/05/18 10:54:16;;;;;;;21.10;5.72;;;;;;;32.29;10.41;98950.00;5096689;28;20051;-50
2021/05/18 10:57:00;;;;;;;29.15;4.95;;;;;;;32.12;10.34;98959.59;5107134;28;20544;-53
2021/05/18 10:59:32;;;;;;;22.25;4.28;;;;;;;32.36;10.10;98958.88;5100702;28;20036;-51
2021/05/18 11:02:11;;;;;;;16.27;4.82;;;;;;;32.19;10.18;98946.22;5109625;28;20067;-53
2021/05/18 11:04:58;;;;;;;21.30;5.38;;;;;;;32.04;10.18;98941.66;5098177;28;20034;-51
2021/05/18 11:07:42;;;;;;;23.75;5.15;;;;;;;32.22;10.28;98931.78;5100223;28;20144;-51
2021/05/18 11:10:14;;;;;;;21.63;5.05;;;;;;;31.89;9.67;98881.69;5109342;28;20028;-53
2021/05/18 11:12:44;;;;;;;29.73;5.22;;;;;;;32.03;9.79;98925.31;5098836;28;20036;-56
2021/05/18 11:15:11;;;;;;;26.77;4.65;;;;;;;31.91;9.93;98943.13;5102918;28;20541;-55
2021/05/18 11:17:46;;;;;;;19.83;4.30;;;;;;;31.95;9.81;98934.25;5107058;28;20036;-52
2021/05/18 11:23:24;;;;;;;32.92;5.63;;;;;;;31.94;10.39;98938.94;5103809;28;20032;-53
2021/05/18 11:26:08;;;;;;;32.22;5.55;;;;;;;31.47;10.58;98847.09;5108392;28;20508;-55
2021/05/18 11:28:37;;;;;;;21.00;4.40;;;;;;;31.90;10.62;98913.78;5092084;28;20024;-48
2021/05/18 11:31:07;;;;;;;25.10;5.00;;;;;;;31.93;10.61;98907.69;5090750;28;20040;-55
2021/05/18 11:33:34;;;;;;;22.05;5.10;;;;;;;31.96;10.23;98927.59;5105491;28;20436;-52
2021/05/18 11:36:09;;;;;;;24.33;4.68;;;;;;;31.69;10.22;98885.38;5102009;28;20077;-53
2021/05/18 11:38:39;;;;;;;25.90;4.90;;;;;;;31.93;10.50;98928.97;5097546;28;20035;-51
2021/05/18 11:41:06;;;;;;;33.17;5.00;;;;;;;31.94;10.70;98905.72;5102665;28;20146;-49
2021/05/18 11:43:37;;;;;;;27.85;5.72;;;;;;;31.99;10.44;98914.00;5091714;28;20039;-48
2021/05/18 11:46:09;;;;;;;18.02;4.43;;;;;;;32.03;10.81;98950.22;5108071;28;20044;-51
2021/05/18 11:48:36;;;;;;;24.15;5.40;;;;;;;31.87;10.82;98897.78;5097448;28;20461;-49
2021/05/18 11:51:20;;;;;;;30.85;5.30;;;;;;;32.03;10.78;98905.94;5103361;28;20046;-53
2021/05/18 11:53:51;;;;;;;20.40;4.63;;;;;;;31.87;11.29;98906.06;5106978;28;20063;-49
2021/05/18 11:56:24;;;;;;;26.25;4.57;;;;;;;31.80;10.93;98880.63;5094837;28;21402;-54
2021/05/18 11:59:02;;;;;;;29.15;5.07;;;;;;;31.82;11.49;98911.63;5104761;28;20028;-52
2021/05/18 12:01:29;;;;;;;26.08;4.80;;;;;;;31.81;11.64;98896.13;5092308;28;20118;-53
2021/05/18 12:04:05;;;;;;;27.70;5.10;;;;;;;31.85;11.39;98880.63;5098528;28;20032;-55
2021/05/18 12:06:34;;;;;;;23.30;5.53;;;;;;;31.77;10.60;98872.91;5090941;28;20530;-55
2021/05/18 12:08:59;;;;;;;18.80;4.50;;;;;;;31.71;10.54;98874.06;5099177;28;20032;-52
2021/05/18 12:11:25;;;;;;;26.65;4.50;;;;;;;31.80;10.56;98916.63;5107518;28;20034;-55
2021/05/18 12:13:52;;;;;;;17.73;4.57;;;;;;;31.83;9.96;98893.09;5095839;27;20043;-54
2021/05/18 12:16:23;;;;;;;28.05;5.13;;;;;;;31.80;10.10;98877.88;5106981;28;20032;-50
2021/05/18 12:18:52;;;;;;;23.02;4.97;;;;;;;31.81;10.62;98900.84;5098298;28;20043;-55
2021/05/18 12:21:20;;;;;;;29.45;4.50;;;;;;;31.71;10.52;98874.06;5100490;28;20039;-55
2021/05/18 12:24:06;;;;;;;21.92;4.82;;;;;;;31.90;10.92;98901.88;5107115;28;20028;-50
2021/05/18 12:26:34;;;;;;;22.73;4.55;;;;;;;31.81;11.13;98887.00;5096980;28;20579;-52
2021/05/18 12:29:04;;;;;;;28.88;4.65;;;;;;;31.84;10.80;98901.13;5100116;28;20031;-51
2021/05/18 12:31:34;;;;;;;21.48;4.70;;;;;;;31.70;10.82;98877.94;5098144;28;20455;-48
2021/05/18 12:34:02;;;;;;;21.08;4.35;;;;;;;31.61;10.87;98873.03;5107646;28;20046;-51
2021/05/18 12:36:28;;;;;;;24.00;4.85;;;;;;;31.69;11.01;98866.03;5095200;28;20028;-52
2021/05/18 12:39:09;;;;;;;25.85;4.68;;;;;;;31.74;10.60;98867.94;5103448;28;20024;-51
2021/05/18 12:41:57;;;;;;;22.85;4.35;;;;;;;31.79;10.99;98879.00;5105166;28;20039;-51
2021/05/18 12:44:26;;;;;;;26.63;4.72;;;;;;;31.58;10.43;98868.03;5101688;28;20496;-53
2021/05/18 12:47:02;;;;;;;31.40;5.10;;;;;;;31.64;10.74;98880.75;5098649;28;20028;-55
2021/05/18 12:49:32;;;;;;;24.13;4.25;;;;;;;31.64;9.86;98905.63;5103344;28;20031;-51
2021/05/18 12:52:02;;;;;;;13.13;4.05;;;;;;;31.62;9.75;98935.53;5099613;28;20036;-51
2021/05/18 12:54:56;;;;;;;35.03;4.28;;;;;;;31.50;9.76;98879.72;5100242;28;20484;-47
2021/05/18 12:57:24;;;;;;;23.40;4.47;;;;;;;31.60;9.67;98918.41;5089520;28;20028;-47
2021/05/18 13:00:05;;;;;;;24.20;4.13;;;;;;;31.51;9.43;98936.69;5090612;28;20575;-52
2021/05/18 13:02:41;;;;;;;25.10;4.90;;;;;;;31.39;9.62;98854.06;5095400;28;20501;-49
2021/05/18 13:05:10;;;;;;;19.67;4.32;;;;;;;31.49;9.59;98880.84;5103313;28;20470;-51
2021/05/18 13:07:36;;;;;;;21.27;4.57;;;;;;;31.34;9.83;98898.34;5090547;28;20043;-49
2021/05/18 13:10:25;;;;;;;23.70;4.18;;;;;;;31.21;9.38;98852.78;5090234;28;20040;-51
2021/05/18 13:13:00;;;;;;;19.08;4.35;;;;;;;31.28;9.25;98861.59;5090100;28;20439;-48
2021/05/18 13:15:25;;;;;;;;;;;;;;;31.59;9.27;98861.41;5090170;28;20501;-49
2021/05/18 13:17:56;;;;;;;25.60;3.80;;;;;;;30.85;9.60;98781.91;5089703;28;19958;-51
2021/05/18 13:20:23;;;;;;;27.80;3.78;;;;;;;31.23;9.87;98864.41;5093690;28;20639;-52
2021/05/18 13:22:57;;;;;;;17.77;4.00;;;;;;;31.25;9.56;98842.81;5103241;28;20028;-49
2021/05/18 13:28:07;;;;;;;29.02;4.68;;;;;;;31.19;9.72;98860.53;5093577;28;20040;-47
2021/05/18 13:30:33;;;;;;;15.75;4.55;;;;;;;31.13;10.15;98845.06;5102988;28;20032;-50
2021/05/18 13:32:59;;;;;;;20.40;4.85;;;;;;;31.13;10.26;98845.88;5098011;28;20065;-47
2021/05/18 13:35:26;;;;;;;20.55;4.05;;;;;;;31.11;10.20;98841.75;5098548;28;20027;-48
2021/05/18 13:37:52;;;;;;;29.85;4.45;;;;;;;31.23;9.83;98847.81;5105563;28;20124;-47
2021/05/18 13:40:20;;;;;;;20.48;3.95;;;;;;;31.28;9.49;98847.78;5092894;28;20134;-48
2021/05/18 13:42:51;;;;;;;19.70;4.85;;;;;;;31.22;9.96;98862.75;5102814;28;20042;-52
2021/05/18 13:45:17;;;;;;;16.67;4.25;;;;;;;31.21;9.97;98855.56;5100356;28;20112;-53
2021/05/18 13:47:42;;;;;;;23.17;4.43;;;;;;;31.14;10.36;98866.06;5095183;28;20126;-58
2021/05/18 13:50:08;;;;;;;18.65;3.70;;;;;;;31.10;9.60;98873.25;5106268;28;20443;-51
2021/05/18 13:52:34;;;;;;;18.58;4.38;;;;;;;31.01;10.05;98832.41;5095067;28;20031;-48
2021/05/18 13:54:59;;;;;;;14.65;3.70;;;;;;;31.00;9.92;98850.09;5100668;28;20089;-46
2021/05/18 13:57:25;;;;;;;10.00;3.45;;;;;;;31.07;10.06;98839.56;5101730;28;20036;-45
2021/05/18 13:59:51;;;;;;;16.10;4.18;;;;;;;30.93;9.82;98827.47;5093379;28;20550;-45
2021/05/18 14:02:18;;;;;;;19.17;4.10;;;;;;;30.91;9.82;98836.03;5106330;28;20134;-48
2021/05/18 14:04:43;;;;;;;16.58;4.25;;;;;;;30.99;10.04;98848.44;5095596;28;20032;-50
2021/05/18 14:10:02;;;;;;;25.38;4.40;;;;;;;31.15;10.60;98840.09;5110429;28;20538;-48
2021/05/18 14:12:28;;;;;;;27.90;4.25;;;;;;;31.06;10.53;98835.13;5097466;28;20035;-52
2021/05/18 14:14:54;;;;;;;18.98;4.88;;;;;;;31.10;10.36;98829.03;5105735;28;20362;-51
2021/05/18 14:17:19;;;;;;;18.38;5.10;;;;;;;30.92;10.70;98817.53;5105045;28;20369;-51
2021/05/18 14:19:45;;;;;;;19.88;4.07;;;;;;;30.78;10.91;98798.81;5098537;28;20428;-48
2021/05/18 14:22:10;;;;;;;22.13;4.80;;;;;;;30.75;11.19;98799.38;5110318;28;20031;-49
2021/05/18 14:24:41;;;;;;;15.85;4.40;;;;;;;30.94;10.68;98807.84;5097489;28;20051;-47
2021/05/18 14:27:09;;;;;;;22.45;4.70;;;;;;;30.66;10.96;98778.97;5103736;28;20036;-52
2021/05/18 14:29:35;;;;;;;20.13;4.90;;;;;;;30.96;11.46;98812.25;5101657;28;20555;-48
2021/05/18 14:32:01;;;;;;;25.08;5.85;;;;;;;31.05;11.44;98825.19;5093470;28;20032;-49
2021/05/18 14:34:26;;;;;;;20.52;5.03;;;;;;;30.94;11.26;98820.84;5109137;28;20168;-50
2021/05/18 14:36:52;;;;;;;23.13;6.00;;;;;;;30.89;11.67;98807.06;5101195;28;20072;-49
2021/05/18 14:39:23;;;;;;;28.40;6.05;;;;;;;30.83;11.65;98821.97;5108708;28;20520;-54
2021/05/18 14:44:33;;;;;;;22.30;6.70;;;;;;;30.74;12.30;98822.59;5097932;28;20023;-51
2021/05/18 14:55:20;;;;;;;25.13;6.32;;;;;;;30.79;11.90;98830.84;5089781;28;20058;-50
2021/05/18 14:57:46;;;;;;;26.58;5.50;;;;;;;30.49;12.05;98795.84;5075422;28;20448;-49
2021/05/18 15:00:12;;;;;;;22.45;4.90;;;;;;;30.73;11.59;98831.13;5092017;28;20044;-48
2021/05/18 15:02:38;;;;;;;24.85;5.15;;;;;;;30.78;11.67;98828.38;5107552;28;20063;-49
2021/05/18 15:05:04;;;;;;;26.33;5.78;;;;;;;30.71;11.90;98831.44;5100449;28;20412;-49
2021/05/18 15:07:29;;;;;;;24.45;5.40;;;;;;;30.76;11.75;98838.88;5099758;28;20406;-53
2021/05/18 15:09:56;;;;;;;27.50;6.50;;;;;;;30.55;12.18;98840.84;5109108;28;20042;-50
2021/05/18 15:12:21;;;;;;;24.10;5.93;;;;;;;30.53;11.98;98796.13;5095616;28;20771;-51
2021/05/18 15:14:47;;;;;;;17.83;5.38;;;;;;;30.42;12.06;98803.59;5105778;28;20111;-51
2021/05/18 15:17:13;;;;;;;25.42;5.72;;;;;;;30.63;12.29;98823.75;5090508;28;20485;-58
2021/05/18 15:19:38;;;;;;;21.83;5.18;;;;;;;30.69;12.31;98871.50;5092934;28;20024;-48
2021/05/18 15:22:04;;;;;;;30.65;6.78;;;;;;;30.54;12.19;98840.03;5111847;28;20436;-50
2021/05/18 15:24:30;;;;;;;21.20;6.50;;;;;;;30.57;11.97;98825.66;5110383;28;20076;-51
2021/05/18 15:26:57;;;;;;;24.85;6.30;;;;;;;30.41;12.01;98811.06;5111886;28;20501;-51
2021/05/18 15:29:22;;;;;;;21.08;5.97;;;;;;;30.20;12.41;98791.81;5113078;28;20043;-50
2021/05/18 15:31:48;;;;;;;33.83;6.78;;;;;;;30.19;12.30;98789.31;5112851;28;20058;-50
2021/05/18 15:34:14;;;;;;;27.55;7.07;;;;;;;30.40;12.52;98814.94;5113324;28;20034;-54
2021/05/18 15:36:39;;;;;;;23.50;7.15;;;;;;;30.31;12.58;98794.53;5113484;27;20035;-48
2021/05/18 15:39:06;;;;;;;29.73;7.45;;;;;;;30.21;12.68;98834.84;5112850;28;20465;-47
2021/05/18 15:41:32;;;;;;;19.13;8.02;;;;;;;30.21;12.40;98815.53;5113037;28;20099;-49
2021/05/18 15:43:59;;;;;;;22.67;7.43;;;;;;;30.05;12.60;98852.53;5112458;28;20036;-48
2021/05/18 15:46:25;;;;;;;29.15;7.10;;;;;;;30.23;12.53;98793.16;5112846;28;20127;-47
2021/05/18 15:48:50;;;;;;;26.20;6.97;;;;;;;30.18;12.49;98801.44;5112532;28;20035;-49
2021/05/18 15:51:16;;;;;;;25.27;7.25;;;;;;;30.17;12.11;98792.38;5112601;28;20504;-47
2021/05/18 15:53:41;;;;;;;21.27;7.20;;;;;;;30.05;12.50;98830.47;5112797;28;20409;-49
2021/05/18 15:56:08;;;;;;;20.30;8.27;;;;;;;30.01;12.73;98796.22;5112669;28;20028;-49
2021/05/18 15:58:34;;;;;;;21.25;7.22;;;;;;;29.90;13.05;98782.44;5112667;28;20069;-53
2021/05/18 16:00:59;;;;;;;23.75;7.20;;;;;;;29.87;12.82;98782.97;5111987;28;20027;-47
2021/05/18 16:03:24;;;;;;;18.63;7.40;;;;;;;29.81;12.98;98745.47;5112096;28;20035;-45
2021/05/18 16:05:51;;;;;;;23.77;7.53;;;;;;;29.87;12.99;98779.41;5111952;28;20147;-51
2021/05/18 16:11:07;;;;;;;27.63;7.63;;;;;;;29.75;12.84;98760.38;5111425;28;20027;-47
2021/05/18 16:13:34;;;;;;;14.45;6.25;;;;;;;29.96;12.64;98757.59;5112430;28;20035;-47
2021/05/18 16:16:05;;;;;;;24.73;6.80;;;;;;;29.76;12.75;98726.19;5112195;28;20035;-47
2021/05/18 16:18:32;;;;;;;25.75;6.15;;;;;;;29.94;12.85;98758.72;5111933;28;20405;-51
2021/05/18 16:21:11;;;;;;;26.00;5.75;;;;;;;29.75;12.79;98728.09;5112004;28;20035;-49
2021/05/18 16:23:40;;;;;;;17.27;5.75;;;;;;;29.90;12.45;98756.78;5111895;28;20046;-52
2021/05/18 16:26:19;;;;;;;23.13;5.55;;;;;;;29.90;12.65;98754.00;5111602;28;20032;-53
2021/05/18 16:28:45;;;;;;;17.55;5.40;;;;;;;29.92;12.39;98749.88;5112318;28;20034;-47
2021/05/18 16:31:12;;;;;;;22.67;5.97;;;;;;;29.91;12.41;98748.22;5111684;28;20036;-51
2021/05/18 16:33:38;;;;;;;20.05;5.68;;;;;;;29.93;12.71;98743.25;5111950;28;20035;-51
2021/05/18 16:36:05;;;;;;;27.13;5.57;;;;;;;29.91;12.61;98747.38;5110147;28;20489;-47
2021/05/18 16:38:33;;;;;;;18.63;5.22;;;;;;;29.81;12.79;98737.19;5111562;28;20032;-51
2021/05/18 16:40:58;;;;;;;14.93;5.22;;;;;;;29.79;12.54;98728.38;5111714;28;20555;-51
2021/05/18 16:43:26;;;;;;;22.00;6.45;;;;;;;29.40;12.70;98671.84;5111576;28;20080;-48
2021/05/18 16:45:53;;;;;;;26.50;5.63;;;;;;;29.73;12.69;98721.22;5111034;28;20035;-48
2021/05/18 16:48:23;;;;;;;23.77;5.78;;;;;;;29.76;12.74;98723.41;5110666;28;20055;-48
2021/05/18 16:50:48;;;;;;;23.13;6.30;;;;;;;29.52;12.68;98729.50;5110991;28;20035;-48